Time;durP1;ratioP1;P1;durP2;ratioP2;P2;SDS_P1;SDS_P2;PMS_P1;PMS_P2;Temp;Humidity;BMP_temperature;BMP_pressure;BME280_temperature;BME280_humidity;BME280_pressure;Samples;Min_cycle;Max_cycle;Signal;HPM_P1;HPM_P2
2021/08/24 00:01:44;;;;;;;10.20;9.30;;;;;;;15.38;87.94;100688.31;116375;1196;23508;-82
2021/08/24 00:04:14;;;;;;;11.20;10.30;;;;;;;15.36;87.98;100690.80;116249;1200;24892;-83
2021/08/24 00:06:43;;;;;;;10.40;9.60;;;;;;;15.34;87.98;100693.33;115775;1201;22657;-82
2021/08/24 00:09:13;;;;;;;10.60;9.70;;;;;;;15.32;88.03;100691.17;115715;1201;22375;-82
2021/08/24 00:11:42;;;;;;;10.90;10.00;;;;;;;15.30;87.90;100695.10;115670;1198;23562;-83
2021/08/24 00:14:13;;;;;;;9.70;8.90;;;;;;;15.27;87.91;100697.60;115717;1201;24271;-80
2021/08/24 00:16:42;;;;;;;11.30;10.10;;;;;;;15.24;87.92;100698.84;115715;1197;22957;-83
2021/08/24 00:19:12;;;;;;;11.40;10.00;;;;;;;15.22;87.97;100692.91;116033;1200;21928;-82
2021/08/24 00:21:41;;;;;;;12.10;9.90;;;;;;;15.20;88.05;100690.52;115946;1198;21937;-82
2021/08/24 00:24:12;;;;;;;9.80;9.00;;;;;;;15.18;87.88;100691.94;116436;1196;21942;-83
2021/08/24 00:26:41;;;;;;;10.20;9.30;;;;;;;15.17;87.96;100697.95;116770;1193;22185;-82
2021/08/24 00:29:12;;;;;;;9.90;9.00;;;;;;;15.15;87.93;100702.95;116811;1193;23538;-82
2021/08/24 00:31:43;;;;;;;9.70;8.90;;;;;;;15.14;87.88;100704.02;116601;1194;23454;-82
2021/08/24 00:34:12;;;;;;;10.10;9.30;;;;;;;15.13;87.95;100708.25;116630;1192;21909;-82
2021/08/24 00:36:41;;;;;;;10.60;9.80;;;;;;;15.13;87.98;100712.18;116731;1195;21906;-81
2021/08/24 00:39:10;;;;;;;9.50;8.50;;;;;;;15.12;87.98;100715.58;116430;1196;23554;-81
2021/08/24 00:41:40;;;;;;;10.10;9.00;;;;;;;15.13;87.94;100716.98;116118;1199;22935;-81
2021/08/24 00:44:09;;;;;;;8.40;7.70;;;;;;;15.13;88.01;100716.70;116002;1198;21934;-81
2021/08/24 00:46:51;;;;;;;9.50;8.60;;;;;;;15.14;87.92;100721.23;115928;1201;21924;-81
2021/08/24 00:49:27;;;;;;;8.90;8.10;;;;;;;15.12;87.84;100718.61;115609;1202;22134;-82
2021/08/24 00:52:14;;;;;;;9.60;8.70;;;;;;;15.10;87.86;100721.20;116016;1200;21921;-83
2021/08/24 00:54:45;;;;;;;11.20;9.20;;;;;;;15.09;87.95;100724.84;115530;1203;22876;-82
2021/08/24 00:57:21;;;;;;;9.50;8.70;;;;;;;15.09;87.88;100722.95;115373;1198;21923;-81
2021/08/24 00:59:53;;;;;;;8.70;8.00;;;;;;;15.07;87.98;100731.25;115928;1199;21909;-82
2021/08/24 01:02:25;;;;;;;10.40;9.60;;;;;;;15.08;88.01;100733.50;115622;1201;23453;-82
2021/08/24 01:04:54;;;;;;;8.90;7.70;;;;;;;15.07;87.92;100730.38;115595;1198;21882;-80
2021/08/24 01:07:39;;;;;;;10.60;9.10;;;;;;;15.08;88.03;100736.36;115855;1201;23697;-81
2021/08/24 01:10:23;;;;;;;9.20;8.30;;;;;;;15.08;87.86;100737.60;115467;1200;24253;-81
2021/08/24 01:13:26;;;;;;;8.80;8.10;;;;;;;15.06;87.83;100739.34;115797;1199;23529;-81
2021/08/24 01:16:22;;;;;;;8.00;7.30;;;;;;;15.03;87.82;100743.45;116226;1198;21882;-81
2021/08/24 01:19:34;;;;;;;8.60;7.80;;;;;;;15.03;87.87;100743.36;116154;1196;21861;-80
2021/08/24 01:22:28;;;;;;;9.00;8.10;;;;;;;15.01;88.07;100743.24;116594;1193;22381;-82
2021/08/24 01:25:11;;;;;;;9.60;8.80;;;;;;;15.00;88.08;100743.29;116825;1192;23762;-81
2021/08/24 01:27:57;;;;;;;8.70;7.90;;;;;;;15.01;88.00;100739.48;116771;1190;21891;-80
2021/08/24 01:30:40;;;;;;;9.40;8.00;;;;;;;15.01;87.92;100743.90;116841;1190;23448;-80
2021/08/24 01:33:28;;;;;;;8.80;8.00;;;;;;;15.00;88.01;100741.64;116872;1193;23750;-80
2021/08/24 01:36:26;;;;;;;8.90;8.10;;;;;;;15.00;87.97;100744.62;116708;1191;23442;-82
2021/08/24 01:39:16;;;;;;;8.50;7.70;;;;;;;14.98;88.03;100743.09;116553;1193;21902;-81
2021/08/24 01:42:23;;;;;;;8.50;7.80;;;;;;;14.97;88.03;100744.89;116587;1192;21892;-81
2021/08/24 01:45:06;;;;;;;9.00;8.00;;;;;;;14.96;88.02;100745.72;116519;1193;21885;-82
2021/08/24 01:47:54;;;;;;;8.60;7.70;;;;;;;14.97;88.06;100749.58;116393;1196;21902;-82
2021/08/24 01:50:35;;;;;;;8.80;7.70;;;;;;;14.96;88.09;100752.36;116158;1193;21903;-81
2021/08/24 01:53:35;;;;;;;10.80;6.90;;;;;;;14.94;88.07;100754.50;116064;1197;23559;-81
2021/08/24 01:56:16;;;;;;;9.90;7.20;;;;;;;14.92;87.99;100754.80;116228;1197;22789;-80
2021/08/24 01:58:57;;;;;;;8.40;7.40;;;;;;;14.92;88.08;100759.23;116382;1195;21897;-81
2021/08/24 02:01:51;;;;;;;7.90;7.10;;;;;;;14.93;87.89;100759.08;116140;1195;22714;-81
2021/08/24 02:04:40;;;;;;;8.50;7.60;;;;;;;14.90;87.80;100759.25;116377;1193;21898;-80
2021/08/24 02:07:11;;;;;;;7.90;6.60;;;;;;;14.88;87.82;100759.83;116452;1195;21907;-81
2021/08/24 02:09:47;;;;;;;6.90;6.30;;;;;;;14.88;87.76;100763.44;116849;1192;21899;-81
2021/08/24 02:12:22;;;;;;;7.60;6.90;;;;;;;14.87;87.78;100768.17;116876;1193;21934;-80
2021/08/24 02:14:52;;;;;;;7.50;6.70;;;;;;;14.85;87.73;100768.92;116818;1193;22640;-80
2021/08/24 02:17:23;;;;;;;7.30;6.60;;;;;;;14.85;87.84;100769.81;116788;1193;22637;-81
2021/08/24 02:20:06;;;;;;;7.40;6.40;;;;;;;14.85;87.78;100771.88;116263;1193;21906;-81
2021/08/24 02:22:41;;;;;;;7.10;6.40;;;;;;;14.86;87.79;100773.92;116246;1191;21904;-81
2021/08/24 02:25:21;;;;;;;6.80;6.20;;;;;;;14.87;87.65;100776.18;116494;1197;22857;-82
2021/08/24 02:28:18;;;;;;;9.40;7.10;;;;;;;14.87;87.68;100779.38;116270;1198;21881;-82
2021/08/24 02:31:15;;;;;;;7.30;6.70;;;;;;;14.85;87.74;100788.20;116102;1199;21917;-82
2021/08/24 02:34:11;;;;;;;8.80;6.70;;;;;;;14.86;87.80;100789.77;116287;1200;23560;-82
2021/08/24 02:36:51;;;;;;;10.20;6.50;;;;;;;14.88;87.84;100792.36;116181;1195;21988;-82
2021/08/24 02:39:32;;;;;;;7.80;6.60;;;;;;;14.90;87.80;100797.39;116202;1199;21923;-82
2021/08/24 02:42:17;;;;;;;6.70;6.10;;;;;;;14.91;87.52;100801.17;116050;1201;21919;-82
2021/08/24 02:45:00;;;;;;;8.50;6.30;;;;;;;14.88;87.42;100794.41;116075;1200;22662;-82
2021/08/24 02:47:29;;;;;;;6.50;5.70;;;;;;;14.86;87.51;100796.27;116422;1197;21967;-83
2021/08/24 02:50:00;;;;;;;6.40;5.80;;;;;;;14.84;87.47;100801.79;116300;1199;23452;-82
2021/08/24 02:52:33;;;;;;;6.90;6.10;;;;;;;14.83;87.48;100797.21;115959;1198;22958;-81
2021/08/24 02:55:06;;;;;;;7.80;6.60;;;;;;;14.82;87.43;100799.28;116136;1200;22633;-81
2021/08/24 02:57:36;;;;;;;7.80;6.30;;;;;;;14.79;87.46;100801.20;115844;1200;22645;-82
2021/08/24 03:00:08;;;;;;;6.90;6.20;;;;;;;14.76;87.37;100797.99;115709;1201;23560;-81
2021/08/24 03:02:37;;;;;;;8.00;5.90;;;;;;;14.73;87.42;100801.75;115611;1200;22778;-82
2021/08/24 03:05:08;;;;;;;6.30;5.70;;;;;;;14.70;87.50;100809.89;115256;1203;22366;-81
2021/08/24 03:07:39;;;;;;;9.80;5.60;;;;;;;14.68;87.39;100809.41;115487;1203;21922;-82
2021/08/24 03:10:17;;;;;;;6.80;6.00;;;;;;;14.64;87.42;100809.19;116082;1196;22438;-82
2021/08/24 03:13:12;;;;;;;8.90;5.40;;;;;;;14.64;87.60;100813.14;115379;1203;21914;-81
2021/08/24 03:16:06;;;;;;;7.30;5.60;;;;;;;14.61;87.44;100807.83;115952;1197;24377;-82
2021/08/24 03:18:46;;;;;;;8.90;5.40;;;;;;;14.57;87.45;100813.76;116393;1196;22879;-81
2021/08/24 03:21:22;;;;;;;8.20;5.70;;;;;;;14.54;87.49;100817.67;116331;1193;21922;-81
2021/08/24 03:23:54;;;;;;;6.30;5.40;;;;;;;14.52;87.44;100818.65;116084;1197;23472;-81
2021/08/24 03:26:32;;;;;;;5.70;5.10;;;;;;;14.49;87.53;100820.69;116245;1197;21906;-82
2021/08/24 03:29:11;;;;;;;6.80;5.50;;;;;;;14.46;87.52;100818.91;115456;1200;21924;-82
2021/08/24 03:31:41;;;;;;;6.50;5.50;;;;;;;14.44;87.63;100822.49;115480;1200;23564;-82
2021/08/24 03:34:12;;;;;;;8.80;5.00;;;;;;;14.43;87.82;100825.33;115515;1200;23652;-82
2021/08/24 03:36:42;;;;;;;10.10;5.80;;;;;;;14.42;87.68;100829.65;115494;1203;23523;-82
2021/08/24 03:39:12;;;;;;;5.80;5.10;;;;;;;14.42;87.76;100832.48;115304;1203;22591;-81
2021/08/24 03:41:42;;;;;;;5.80;5.20;;;;;;;14.43;87.83;100834.66;115610;1201;22333;-82
2021/08/24 03:44:11;;;;;;;5.60;5.10;;;;;;;14.43;87.79;100836.13;115579;1197;21911;-81
2021/08/24 03:46:41;;;;;;;5.90;5.40;;;;;;;14.42;87.65;100838.86;115724;1197;21908;-81
2021/08/24 03:49:10;;;;;;;6.20;5.00;;;;;;;14.43;87.69;100839.40;115766;1200;21904;-80
2021/08/24 03:51:40;;;;;;;9.20;4.90;;;;;;;14.42;87.72;100844.09;116109;1197;23019;-81
2021/08/24 03:54:10;;;;;;;7.00;4.60;;;;;;;14.39;87.62;100848.29;116208;1192;23471;-81
2021/08/24 03:56:41;;;;;;;6.40;4.60;;;;;;;14.37;87.53;100852.60;116659;1195;21974;-81
2021/08/24 03:59:11;;;;;;;5.60;5.00;;;;;;;14.36;87.68;100858.19;116629;1194;22959;-81
2021/08/24 04:01:40;;;;;;;8.70;4.90;;;;;;;14.34;87.64;100858.94;116647;1194;21890;-81
2021/08/24 04:04:11;;;;;;;7.40;5.10;;;;;;;14.33;87.64;100862.77;116688;1192;23024;-80
2021/08/24 04:06:40;;;;;;;7.80;5.30;;;;;;;14.32;87.65;100865.11;116381;1197;23380;-80
2021/08/24 04:09:09;;;;;;;6.40;4.70;;;;;;;14.30;87.57;100868.11;116519;1195;21895;-81
2021/08/24 04:11:38;;;;;;;8.00;5.10;;;;;;;14.28;87.61;100868.59;116541;1193;22523;-82
2021/08/24 04:14:08;;;;;;;9.80;5.00;;;;;;;14.25;87.43;100874.69;116434;1192;22898;-81
2021/08/24 04:16:37;;;;;;;8.20;5.20;;;;;;;14.22;87.43;100874.92;116220;1192;23560;-80
2021/08/24 04:19:06;;;;;;;7.30;5.00;;;;;;;14.20;87.44;100878.36;116321;1195;23537;-81
2021/08/24 04:21:42;;;;;;;8.00;4.60;;;;;;;14.19;87.53;100883.29;115948;1198;21904;-80
2021/08/24 04:24:11;;;;;;;6.10;5.10;;;;;;;14.16;87.42;100886.98;116149;1197;22877;-79
2021/08/24 04:26:40;;;;;;;7.10;4.70;;;;;;;14.12;87.52;100890.38;116170;1197;21892;-80
2021/08/24 04:29:10;;;;;;;4.80;4.40;;;;;;;14.11;87.57;100891.41;116287;1196;22871;-80
2021/08/24 04:31:40;;;;;;;6.90;4.80;;;;;;;14.11;87.70;100892.27;116271;1191;22659;-80
2021/08/24 04:34:11;;;;;;;9.30;5.60;;;;;;;14.08;87.64;100897.71;116205;1195;23448;-80
2021/08/24 04:36:40;;;;;;;6.90;5.00;;;;;;;14.06;87.60;100896.89;116280;1196;23012;-81
2021/08/24 04:39:10;;;;;;;6.30;4.20;;;;;;;14.07;87.69;100898.61;116695;1194;23505;-81
2021/08/24 04:41:39;;;;;;;5.30;4.30;;;;;;;14.07;87.51;100901.08;116659;1195;21974;-81
2021/08/24 04:44:08;;;;;;;5.60;4.60;;;;;;;14.06;87.52;100904.20;115864;1197;21911;-80
2021/08/24 04:46:38;;;;;;;7.80;5.20;;;;;;;14.05;87.59;100911.91;115990;1197;21894;-81
2021/08/24 04:49:07;;;;;;;7.10;4.80;;;;;;;14.06;87.58;100915.93;116139;1197;21922;-81
2021/08/24 04:51:37;;;;;;;7.70;4.10;;;;;;;14.05;87.48;100920.28;116001;1197;21941;-81
2021/08/24 04:54:06;;;;;;;8.10;4.70;;;;;;;14.02;87.27;100924.47;116590;1198;21921;-81
2021/08/24 04:56:36;;;;;;;6.50;5.00;;;;;;;13.99;87.35;100933.70;116163;1196;21904;-80
2021/08/24 04:59:05;;;;;;;7.80;7.00;;;;;;;13.96;87.19;100932.27;116146;1196;21890;-81
2021/08/24 05:01:34;;;;;;;8.90;5.70;;;;;;;13.93;87.38;100928.75;116308;1196;23633;-81
2021/08/24 05:04:04;;;;;;;6.10;5.40;;;;;;;13.91;87.39;100928.48;116862;1193;21901;-82
2021/08/24 05:06:33;;;;;;;9.00;5.10;;;;;;;13.89;87.31;100926.89;116968;1192;21937;-81
2021/08/24 05:09:03;;;;;;;7.00;4.50;;;;;;;13.88;87.34;100928.55;116860;1193;22758;-82
2021/08/24 05:11:32;;;;;;;6.50;5.40;;;;;;;13.86;87.23;100929.50;116526;1198;21895;-82
2021/08/24 05:14:02;;;;;;;6.10;5.00;;;;;;;13.83;87.18;100929.01;116585;1195;21921;-82
2021/08/24 05:16:31;;;;;;;5.80;5.20;;;;;;;13.80;87.24;100931.46;116613;1193;22557;-82
2021/08/24 05:19:02;;;;;;;6.40;4.50;;;;;;;13.79;87.35;100932.66;116574;1192;22174;-82
2021/08/24 05:21:35;;;;;;;10.10;5.30;;;;;;;13.77;87.17;100936.23;116914;1195;22716;-82
2021/08/24 05:24:05;;;;;;;7.50;5.00;;;;;;;13.75;87.25;100935.57;116846;1195;22331;-83
2021/08/24 05:26:35;;;;;;;10.70;4.90;;;;;;;13.73;87.34;100938.23;116787;1192;22914;-81
2021/08/24 05:29:05;;;;;;;5.90;4.60;;;;;;;13.72;87.17;100939.27;116903;1193;23449;-82
2021/08/24 05:31:35;;;;;;;8.90;4.90;;;;;;;13.72;87.40;100946.38;117139;1189;22203;-82
2021/08/24 05:34:04;;;;;;;13.80;5.10;;;;;;;13.72;87.43;100947.30;117012;1193;23553;-79
2021/08/24 05:36:33;;;;;;;6.50;4.40;;;;;;;13.72;87.47;100953.27;116755;1187;23556;-80
2021/08/24 05:39:03;;;;;;;6.60;4.20;;;;;;;13.73;87.39;100957.59;116780;1192;21935;-80
2021/08/24 05:41:33;;;;;;;7.50;3.90;;;;;;;13.74;87.38;100957.08;116638;1193;21913;-80
2021/08/24 05:44:03;;;;;;;5.70;4.80;;;;;;;13.74;87.50;100963.13;116497;1195;23487;-80
2021/08/24 05:46:32;;;;;;;6.40;4.50;;;;;;;13.75;87.56;100965.18;116508;1195;22006;-80
2021/08/24 05:49:03;;;;;;;14.20;11.00;;;;;;;13.75;87.39;100966.87;116595;1193;23475;-81
2021/08/24 05:51:33;;;;;;;9.70;4.60;;;;;;;13.76;87.29;100970.75;116648;1189;21897;-80
2021/08/24 05:54:03;;;;;;;8.20;4.80;;;;;;;13.76;87.35;100975.29;116550;1192;21915;-80
2021/08/24 05:56:32;;;;;;;8.20;5.00;;;;;;;13.76;87.24;100974.96;116626;1190;22812;-79
2021/08/24 05:59:01;;;;;;;8.40;4.40;;;;;;;13.76;87.36;100977.65;116488;1193;21926;-79
2021/08/24 06:01:32;;;;;;;6.40;4.60;;;;;;;13.76;87.44;100980.56;116854;1190;22957;-79
2021/08/24 06:04:03;;;;;;;5.90;4.40;;;;;;;13.76;87.36;100987.30;116886;1192;22866;-79
2021/08/24 06:06:37;;;;;;;6.00;4.00;;;;;;;13.75;87.39;100990.27;116690;1195;21885;-79
2021/08/24 06:09:11;;;;;;;7.70;4.10;;;;;;;13.77;87.40;100997.16;116687;1192;21969;-79
2021/08/24 06:11:47;;;;;;;5.60;4.40;;;;;;;13.78;87.34;101002.50;116783;1192;22064;-79
2021/08/24 06:14:20;;;;;;;5.10;3.90;;;;;;;13.77;87.11;101005.92;116609;1194;21896;-79
2021/08/24 06:16:57;;;;;;;5.90;3.80;;;;;;;13.76;87.10;101008.58;116755;1193;23055;-79
2021/08/24 06:19:29;;;;;;;9.30;4.70;;;;;;;13.74;86.90;101009.82;116676;1192;21901;-79
2021/08/24 06:22:00;;;;;;;5.80;4.40;;;;;;;13.73;87.01;101008.92;116447;1189;21902;-79
2021/08/24 06:24:30;;;;;;;7.90;4.90;;;;;;;13.73;87.10;101008.52;116186;1195;21913;-79
2021/08/24 06:27:00;;;;;;;5.70;4.80;;;;;;;13.73;87.15;101011.02;116360;1195;21944;-79
2021/08/24 06:29:29;;;;;;;8.50;5.20;;;;;;;13.74;86.99;101009.48;116390;1196;22274;-79
2021/08/24 06:32:00;;;;;;;7.80;4.20;;;;;;;13.76;86.90;101011.44;116215;1195;23466;-79
2021/08/24 06:34:34;;;;;;;6.00;3.80;;;;;;;13.76;86.95;101013.73;116157;1197;22873;-79
2021/08/24 06:37:04;;;;;;;6.40;4.20;;;;;;;13.76;86.88;101011.11;116189;1195;23464;-78
2021/08/24 06:39:33;;;;;;;9.70;4.00;;;;;;;13.77;87.12;101011.95;116116;1192;22316;-79
2021/08/24 06:42:05;;;;;;;8.40;4.00;;;;;;;13.81;87.28;101015.10;116327;1193;22294;-79
2021/08/24 06:44:34;;;;;;;7.40;3.70;;;;;;;13.83;87.23;101012.77;116584;1192;21894;-79
2021/08/24 06:47:03;;;;;;;5.80;4.50;;;;;;;13.85;87.19;101010.33;116471;1192;21925;-79
2021/08/24 06:49:32;;;;;;;6.80;4.10;;;;;;;13.87;87.09;101018.27;116347;1195;23806;-78
2021/08/24 06:52:04;;;;;;;5.40;4.40;;;;;;;13.89;86.91;101020.84;116382;1192;21991;-79
2021/08/24 06:54:34;;;;;;;5.00;4.10;;;;;;;13.90;86.79;101022.36;116360;1193;21901;-80
2021/08/24 06:57:05;;;;;;;9.00;6.40;;;;;;;13.91;86.73;101018.58;116378;1196;22935;-78
2021/08/24 06:59:39;;;;;;;5.90;4.30;;;;;;;13.93;86.70;101024.02;116438;1193;22843;-79
2021/08/24 07:02:10;;;;;;;7.30;3.60;;;;;;;13.92;86.60;101023.59;116177;1192;21931;-79
2021/08/24 07:04:40;;;;;;;6.80;3.80;;;;;;;13.92;86.36;101023.36;116364;1190;24330;-79
2021/08/24 07:07:09;;;;;;;8.20;4.50;;;;;;;13.94;86.32;101025.05;116784;1189;21900;-79
2021/08/24 07:09:38;;;;;;;7.30;4.10;;;;;;;13.96;86.21;101029.52;116477;1192;23565;-79
2021/08/24 07:12:07;;;;;;;8.80;3.90;;;;;;;13.97;86.03;101031.17;116530;1192;21947;-80
2021/08/24 07:14:37;;;;;;;6.20;4.00;;;;;;;13.98;85.88;101028.20;116603;1186;22983;-79
2021/08/24 07:17:06;;;;;;;8.30;3.60;;;;;;;14.02;85.84;101030.48;116636;1190;21914;-80
2021/08/24 07:19:37;;;;;;;5.40;4.00;;;;;;;14.03;85.53;101034.69;116322;1196;22808;-80
2021/08/24 07:22:07;;;;;;;7.40;3.90;;;;;;;14.04;85.41;101038.52;116319;1193;22132;-80
2021/08/24 07:24:36;;;;;;;8.50;3.10;;;;;;;14.04;85.15;101044.64;116301;1190;21887;-80
2021/08/24 07:27:06;;;;;;;7.90;4.30;;;;;;;14.02;84.94;101044.55;116189;1196;23463;-80
2021/08/24 07:29:35;;;;;;;5.90;3.90;;;;;;;13.99;84.61;101047.20;116286;1196;24240;-79
2021/08/24 07:32:05;;;;;;;8.30;4.90;;;;;;;13.97;84.59;101048.98;116418;1192;21884;-79
2021/08/24 07:34:37;;;;;;;6.80;4.10;;;;;;;13.96;84.38;101057.06;116179;1195;23447;-79
2021/08/24 07:37:06;;;;;;;8.80;6.40;;;;;;;13.96;84.31;101059.23;116411;1190;21903;-80
2021/08/24 07:39:35;;;;;;;9.50;5.00;;;;;;;13.98;84.14;101061.21;116584;1191;21883;-79
2021/08/24 07:42:05;;;;;;;5.30;4.40;;;;;;;13.98;84.02;101066.95;116510;1191;21967;-80
2021/08/24 07:44:34;;;;;;;6.60;3.90;;;;;;;14.01;83.97;101066.96;116189;1193;21915;-80
2021/08/24 07:47:09;;;;;;;10.20;4.00;;;;;;;14.03;83.86;101070.36;116345;1196;21855;-80
2021/08/24 07:49:39;;;;;;;5.30;3.70;;;;;;;14.04;83.78;101072.34;116575;1195;23480;-80
2021/08/24 07:52:11;;;;;;;5.50;3.60;;;;;;;14.06;83.72;101080.11;116551;1195;23475;-79
2021/08/24 07:54:40;;;;;;;5.00;3.70;;;;;;;14.07;83.50;101081.33;116205;1194;22935;-80
2021/08/24 07:57:10;;;;;;;8.70;3.60;;;;;;;14.10;83.43;101084.98;116237;1194;22675;-80
2021/08/24 07:59:39;;;;;;;6.50;4.00;;;;;;;14.15;83.61;101088.70;116199;1198;23628;-80
2021/08/24 08:02:13;;;;;;;6.30;5.10;;;;;;;14.20;83.66;101087.19;116166;1196;23989;-80
2021/08/24 08:04:44;;;;;;;9.10;4.10;;;;;;;14.30;83.80;101092.98;116381;1195;22915;-80
2021/08/24 08:07:15;;;;;;;6.50;4.00;;;;;;;14.42;83.84;101096.21;116466;1192;23556;-80
2021/08/24 08:09:45;;;;;;;4.30;3.80;;;;;;;14.56;83.63;101092.90;116564;1190;22932;-79
2021/08/24 08:12:19;;;;;;;7.20;3.90;;;;;;;14.68;83.33;101097.91;116556;1189;24096;-79
2021/08/24 08:14:48;;;;;;;7.50;3.90;;;;;;;14.77;82.97;101098.02;116692;1191;22508;-81
2021/08/24 08:17:21;;;;;;;6.60;3.80;;;;;;;14.85;82.36;101097.36;116783;1193;21912;-80
2021/08/24 08:19:54;;;;;;;7.30;3.40;;;;;;;14.92;82.01;101102.56;116994;1190;21899;-84
2021/08/24 08:22:43;;;;;;;7.00;4.10;;;;;;;14.97;81.48;101102.36;117018;1189;22354;-82
2021/08/24 08:25:12;;;;;;;5.30;3.20;;;;;;;15.03;81.20;101106.36;116651;1197;21897;-78
2021/08/24 08:27:42;;;;;;;5.50;3.60;;;;;;;15.11;80.97;101111.86;116584;1193;22917;-79
2021/08/24 08:30:12;;;;;;;10.20;3.60;;;;;;;15.17;80.49;101111.70;116326;1195;22918;-79
2021/08/24 08:32:43;;;;;;;7.20;3.10;;;;;;;15.22;80.28;101115.39;115894;1194;21904;-80
2021/08/24 08:35:16;;;;;;;4.60;3.20;;;;;;;15.28;79.83;101121.23;116180;1198;21972;-80
2021/08/24 08:37:47;;;;;;;5.20;3.60;;;;;;;15.35;79.65;101123.80;115812;1198;21925;-80
2021/08/24 08:40:34;;;;;;;5.80;3.40;;;;;;;15.40;79.38;101128.22;115243;1200;23460;-80
2021/08/24 08:43:54;;;;;;;8.30;4.10;;;;;;;15.43;79.01;101127.09;115481;1202;23624;-81
2021/08/24 08:46:57;;;;;;;7.40;3.10;;;;;;;15.46;78.75;101128.52;115984;1200;23465;-80
2021/08/24 08:49:58;;;;;;;5.10;3.10;;;;;;;15.54;78.74;101129.54;115752;1195;21998;-81
2021/08/24 08:52:59;;;;;;;7.90;6.00;;;;;;;15.66;78.90;101135.04;116112;1196;21914;-80
2021/08/24 08:55:31;;;;;;;11.70;4.40;;;;;;;15.78;78.52;101139.89;116157;1193;22922;-78
2021/08/24 08:58:14;;;;;;;8.20;2.80;;;;;;;15.88;78.29;101140.27;116142;1196;21895;-79
2021/08/24 09:00:56;;;;;;;5.30;2.90;;;;;;;15.94;77.62;101145.25;116440;1196;21970;-80
2021/08/24 09:04:12;;;;;;;5.10;2.90;;;;;;;15.94;77.11;101151.40;116288;1194;22298;-80
2021/08/24 09:06:44;;;;;;;4.30;2.80;;;;;;;15.96;76.83;101151.40;116363;1190;22621;-81
2021/08/24 09:09:14;;;;;;;6.20;3.10;;;;;;;15.99;76.74;101149.89;116455;1194;21886;-80
2021/08/24 09:11:47;;;;;;;5.60;2.90;;;;;;;16.05;76.67;101146.39;115978;1192;21914;-80
2021/08/24 09:14:41;;;;;;;4.00;2.20;;;;;;;16.11;76.38;101148.48;115323;1200;24216;-80
2021/08/24 09:17:16;;;;;;;7.10;2.50;;;;;;;16.15;75.95;101145.91;115804;1200;23640;-80
2021/08/24 09:19:57;;;;;;;5.10;2.70;;;;;;;16.19;75.75;101147.96;116317;1195;21889;-80
2021/08/24 09:22:27;;;;;;;4.10;2.80;;;;;;;16.30;75.77;101151.06;116088;1198;21903;-80
2021/08/24 09:24:57;;;;;;;9.70;2.50;;;;;;;16.47;75.84;101153.98;115678;1201;21937;-80
2021/08/24 09:28:00;;;;;;;5.50;2.50;;;;;;;16.75;75.99;101156.73;115273;1203;23461;-81
2021/08/24 09:30:31;;;;;;;7.90;2.40;;;;;;;17.06;74.10;101155.19;115420;1200;21987;-79
2021/08/24 09:33:07;;;;;;;5.80;2.30;;;;;;;17.26;72.97;101156.15;115540;1202;21933;-79
2021/08/24 09:35:46;;;;;;;4.50;2.70;;;;;;;17.43;72.10;101157.61;115414;1199;22174;-80
2021/08/24 09:38:24;;;;;;;8.50;2.50;;;;;;;17.67;71.61;101158.34;115693;1197;23488;-80
2021/08/24 09:41:36;;;;;;;9.40;2.80;;;;;;;17.87;70.27;101161.58;115278;1205;21929;-80
2021/08/24 09:44:27;;;;;;;3.90;2.20;;;;;;;18.14;69.26;101154.19;115605;1200;21898;-80
2021/08/24 09:47:21;;;;;;;6.70;2.10;;;;;;;18.33;68.31;101158.86;115836;1197;21902;-79
2021/08/24 09:49:57;;;;;;;3.40;2.20;;;;;;;18.48;66.75;101161.73;116062;1198;21890;-79
2021/08/24 09:52:52;;;;;;;4.40;1.80;;;;;;;18.51;65.47;101165.80;116230;1200;22942;-79
2021/08/24 09:55:27;;;;;;;7.70;2.20;;;;;;;18.53;64.09;101172.16;116513;1192;22915;-78
2021/08/24 09:58:04;;;;;;;6.00;2.00;;;;;;;18.48;62.91;101175.14;116211;1195;21892;-79
2021/08/24 10:00:53;;;;;;;5.50;2.30;;;;;;;18.40;62.01;101178.77;116453;1194;22639;-78
2021/08/24 10:03:32;;;;;;;3.70;1.90;;;;;;;18.40;62.10;101181.16;116117;1198;21899;-80
2021/08/24 10:06:30;;;;;;;3.30;1.70;;;;;;;18.40;61.95;101180.16;116036;1193;23987;-79
2021/08/24 10:09:29;;;;;;;5.00;1.90;;;;;;;18.40;62.00;101177.98;115727;1201;21898;-79
2021/08/24 10:12:13;;;;;;;3.70;1.70;;;;;;;18.41;62.33;101178.11;115748;1201;22605;-80
2021/08/24 10:14:49;;;;;;;5.10;1.70;;;;;;;18.42;62.10;101184.25;115808;1201;22451;-80
2021/08/24 10:17:31;;;;;;;2.20;1.50;;;;;;;18.35;61.23;101183.64;115636;1200;21943;-79
2021/08/24 10:20:20;;;;;;;14.30;2.10;;;;;;;18.24;60.92;101188.11;116214;1195;22016;-77
2021/08/24 10:22:52;;;;;;;5.80;1.30;;;;;;;18.15;60.91;101187.45;116002;1199;23581;-77
2021/08/24 10:25:49;;;;;;;2.40;1.50;;;;;;;18.11;60.96;101183.85;116323;1197;23556;-76
2021/08/24 10:28:53;;;;;;;4.00;1.70;;;;;;;18.10;60.65;101190.02;116477;1192;22910;-77
2021/08/24 10:31:34;;;;;;;5.60;2.10;;;;;;;18.09;60.17;101194.91;116161;1192;21900;-76
2021/08/24 10:34:37;;;;;;;5.10;2.00;;;;;;;18.07;59.94;101196.01;116388;1195;22707;-76
2021/08/24 10:37:23;;;;;;;3.60;2.00;;;;;;;18.16;60.18;101196.13;116452;1195;21898;-78
2021/08/24 10:40:15;;;;;;;2.60;1.70;;;;;;;18.26;60.35;101197.92;116171;1196;21951;-77
2021/08/24 10:43:02;;;;;;;5.00;2.30;;;;;;;18.37;60.33;101199.83;116130;1196;21982;-77
2021/08/24 10:45:36;;;;;;;2.50;1.50;;;;;;;18.54;60.61;101207.69;116300;1195;21928;-77
2021/08/24 10:48:17;;;;;;;6.50;1.50;;;;;;;18.66;59.96;101210.70;115809;1201;21903;-77
2021/08/24 10:51:34;;;;;;;3.90;1.30;;;;;;;18.75;59.49;101214.46;116197;1196;21913;-77
2021/08/24 10:54:38;;;;;;;5.20;1.70;;;;;;;18.77;59.16;101210.02;115965;1198;21897;-78
2021/08/24 10:57:53;;;;;;;5.30;2.20;;;;;;;18.78;59.04;101213.73;115271;1203;21904;-77
2021/08/24 11:00:49;;;;;;;3.10;1.60;;;;;;;18.93;59.38;101222.60;115550;1203;22003;-76
2021/08/24 11:03:41;;;;;;;3.20;1.40;;;;;;;19.00;58.89;101226.54;115263;1202;23067;-78
2021/08/24 11:07:07;;;;;;;2.80;1.60;;;;;;;18.99;58.15;101224.67;115563;1198;21922;-77
2021/08/24 11:09:55;;;;;;;4.90;1.60;;;;;;;18.92;57.93;101226.09;115957;1200;21932;-75
2021/08/24 11:12:59;;;;;;;5.80;1.90;;;;;;;18.80;57.86;101218.27;115573;1201;22923;-77
2021/08/24 11:15:56;;;;;;;2.20;1.30;;;;;;;18.73;58.50;101213.42;115970;1199;23474;-77
2021/08/24 11:18:49;;;;;;;4.30;1.90;;;;;;;18.58;58.24;101213.91;115846;1200;21900;-77
2021/08/24 11:21:39;;;;;;;2.50;1.50;;;;;;;18.47;58.26;101215.55;115829;1199;21967;-77
2021/08/24 11:24:27;;;;;;;4.70;1.80;;;;;;;18.42;58.18;101218.45;115854;1196;21943;-77
2021/08/24 11:27:50;;;;;;;3.80;1.40;;;;;;;18.36;58.29;101219.52;115768;1201;23503;-78
2021/08/24 11:30:38;;;;;;;5.90;1.80;;;;;;;18.27;58.53;101218.29;115246;1202;22387;-77
2021/08/24 11:33:33;;;;;;;5.10;2.00;;;;;;;18.20;58.80;101217.17;115662;1199;21955;-78
2021/08/24 11:36:21;;;;;;;3.40;2.00;;;;;;;18.16;58.83;101215.88;116380;1194;22945;-78
2021/08/24 11:39:12;;;;;;;3.00;1.70;;;;;;;18.17;59.17;101221.02;116196;1195;21890;-77
2021/08/24 11:41:45;;;;;;;7.90;2.50;;;;;;;18.23;59.37;101221.19;116066;1196;22014;-77
2021/08/24 11:44:47;;;;;;;5.60;2.60;;;;;;;18.29;59.32;101221.92;115699;1199;21884;-78
2021/08/24 11:47:30;;;;;;;6.30;1.70;;;;;;;18.44;59.63;101222.29;115700;1196;21910;-77
2021/08/24 11:50:12;;;;;;;2.60;1.50;;;;;;;18.56;59.15;101219.41;115560;1201;21970;-76
2021/08/24 11:52:51;;;;;;;8.00;2.40;;;;;;;18.61;58.30;101219.45;115765;1201;22255;-76
2021/08/24 11:55:56;;;;;;;6.10;2.30;;;;;;;18.65;57.90;101219.01;115667;1200;21916;-77
2021/08/24 11:58:48;;;;;;;5.80;2.10;;;;;;;18.65;57.50;101222.21;115724;1200;23569;-76
2021/08/24 12:01:22;;;;;;;3.40;2.10;;;;;;;18.64;56.83;101226.95;115690;1201;23499;-76
2021/08/24 12:03:58;;;;;;;4.40;2.10;;;;;;;18.66;56.49;101224.95;115819;1200;22869;-76
2021/08/24 12:06:43;;;;;;;8.50;2.40;;;;;;;18.72;56.24;101225.25;115928;1197;21881;-76